createdAt,value
2017-08-07T00:00:07.752Z,13.70
2017-08-07T00:02:42.851Z,13.60
2017-08-07T00:05:18.414Z,13.50
2017-08-07T00:07:53.279Z,13.50
2017-08-07T00:10:28.556Z,13.60
2017-08-07T00:13:11.324Z,13.50
2017-08-07T00:15:46.319Z,13.50
2017-08-07T00:18:21.364Z,13.60
2017-08-07T00:20:56.338Z,13.50
2017-08-07T00:23:31.336Z,13.60
2017-08-07T00:26:07.199Z,13.50
2017-08-07T00:28:42.038Z,13.50
2017-08-07T00:31:16.965Z,13.40
2017-08-07T00:33:51.757Z,13.40
2017-08-07T00:36:26.716Z,13.40
2017-08-07T00:39:08.164Z,13.30
2017-08-07T00:41:43.008Z,13.40
2017-08-07T00:44:17.961Z,13.40
2017-08-07T00:46:52.764Z,13.50
2017-08-07T00:49:27.757Z,13.50
2017-08-07T00:52:03.483Z,13.30
2017-08-07T00:54:38.449Z,13.50
2017-08-07T00:57:13.349Z,13.40
2017-08-07T00:59:48.214Z,13.50
2017-08-07T01:02:23.224Z,13.50
2017-08-07T01:04:58.152Z,13.60
2017-08-07T01:07:33.043Z,13.60
2017-08-07T01:10:08.841Z,13.60
2017-08-07T01:12:43.853Z,13.30
2017-08-07T01:15:18.681Z,13.40
2017-08-07T01:17:53.612Z,13.40
2017-08-07T01:20:28.724Z,13.50
2017-08-07T01:23:03.616Z,13.40
2017-08-07T01:25:39.337Z,13.40
2017-08-07T01:28:14.125Z,13.50
2017-08-07T01:30:49.017Z,13.50
2017-08-07T01:33:23.953Z,13.30
2017-08-07T01:35:58.959Z,13.30
2017-08-07T01:38:33.891Z,13.30
2017-08-07T01:41:08.828Z,13.30
2017-08-07T01:43:43.647Z,13.30
2017-08-07T01:46:18.581Z,13.30
2017-08-07T01:48:53.593Z,13.30
2017-08-07T01:51:28.534Z,13.20
2017-08-07T01:54:03.411Z,13.20
2017-08-07T01:56:38.683Z,13.10
2017-08-07T01:59:13.641Z,13.20
2017-08-07T02:01:48.696Z,13.20
2017-08-07T02:04:23.625Z,13.10
2017-08-07T02:06:58.580Z,13.00
2017-08-07T02:09:33.516Z,13.10
2017-08-07T02:12:08.332Z,13.00
2017-08-07T02:14:43.256Z,13.10
2017-08-07T02:17:18.085Z,13.10
2017-08-07T02:19:52.879Z,13.00
2017-08-07T02:22:27.749Z,13.00
2017-08-07T02:25:02.570Z,13.00
2017-08-07T02:27:37.547Z,13.00
2017-08-07T02:30:12.389Z,12.80
2017-08-07T02:32:47.402Z,13.00
2017-08-07T02:35:22.235Z,13.00
2017-08-07T02:37:57.908Z,12.90
2017-08-07T02:40:32.807Z,12.90
2017-08-07T02:43:08.432Z,13.00
2017-08-07T02:45:43.373Z,13.00
2017-08-07T02:48:18.317Z,13.00
2017-08-07T02:50:53.356Z,13.10
2017-08-07T02:53:28.364Z,13.00
2017-08-07T02:56:03.352Z,13.10
2017-08-07T02:58:38.166Z,13.10
2017-08-07T03:01:13.243Z,13.00
2017-08-07T03:03:48.882Z,13.00
2017-08-07T03:06:23.756Z,12.80
2017-08-07T03:08:58.583Z,13.00
2017-08-07T03:11:33.387Z,12.90
2017-08-07T03:14:08.978Z,12.90
2017-08-07T03:16:44.784Z,12.90
2017-08-07T03:19:19.740Z,12.90
2017-08-07T03:21:54.679Z,12.90
2017-08-07T03:24:29.502Z,12.90
2017-08-07T03:27:04.401Z,12.90
2017-08-07T03:29:40.083Z,12.80
2017-08-07T03:32:14.975Z,12.80
2017-08-07T03:34:49.844Z,12.80
2017-08-07T03:37:25.568Z,12.80
2017-08-07T03:40:00.527Z,12.90
2017-08-07T03:42:53.105Z,12.80
2017-08-07T03:45:27.992Z,12.80
2017-08-07T03:48:02.815Z,12.80
2017-08-07T03:50:37.792Z,12.90
2017-08-07T03:53:12.715Z,12.90
2017-08-07T03:55:47.811Z,12.90
2017-08-07T03:58:22.738Z,12.90
2017-08-07T04:00:57.683Z,12.90
2017-08-07T04:03:33.425Z,12.90
2017-08-07T04:06:08.342Z,12.90
2017-08-07T04:08:43.281Z,11.30
2017-08-07T04:11:18.239Z,12.90
2017-08-07T04:13:53.227Z,12.80
2017-08-07T04:16:28.149Z,12.80
2017-08-07T04:19:03.012Z,12.80
2017-08-07T04:21:37.915Z,12.90
2017-08-07T04:24:12.853Z,13.00
2017-08-07T04:26:47.668Z,13.00
2017-08-07T04:29:22.584Z,13.10
2017-08-07T04:31:57.482Z,13.10
2017-08-07T04:34:32.407Z,13.20
2017-08-07T04:37:07.184Z,13.10
2017-08-07T04:39:42.162Z,13.10
2017-08-07T04:42:22.663Z,13.20
2017-08-07T04:44:57.470Z,13.20
2017-08-07T04:47:32.287Z,13.20
2017-08-07T04:50:07.072Z,13.40
2017-08-07T04:52:42.979Z,13.10
2017-08-07T04:55:17.869Z,13.30
2017-08-07T04:57:52.930Z,13.40
2017-08-07T05:00:27.835Z,13.50
2017-08-07T05:03:02.841Z,13.70
2017-08-07T05:05:37.779Z,13.70
2017-08-07T05:08:12.757Z,13.90
2017-08-07T05:10:47.660Z,13.90
2017-08-07T05:13:22.444Z,13.90
2017-08-07T05:15:57.370Z,13.90
2017-08-07T05:18:33.319Z,13.90
2017-08-07T05:21:08.240Z,13.90
2017-08-07T05:23:43.222Z,14.10
2017-08-07T05:26:18.216Z,14.30
2017-08-07T05:28:53.049Z,14.40
2017-08-07T05:31:28.805Z,14.60
2017-08-07T05:34:03.768Z,14.70
2017-08-07T05:36:38.566Z,14.70
2017-08-07T05:39:13.508Z,14.60
2017-08-07T05:41:48.291Z,14.90
2017-08-07T05:44:23.223Z,15.00
2017-08-07T05:46:58.099Z,15.10
2017-08-07T05:49:33.740Z,15.40
2017-08-07T05:52:08.683Z,15.40
2017-08-07T05:54:43.544Z,15.50
2017-08-07T05:57:18.327Z,15.60
2017-08-07T05:59:53.373Z,15.60
2017-08-07T06:02:28.313Z,15.90
2017-08-07T06:05:03.293Z,16.00
2017-08-07T06:07:38.276Z,16.20
2017-08-07T06:10:13.104Z,16.30
2017-08-07T06:12:47.897Z,16.40
2017-08-07T06:15:22.727Z,16.70
2017-08-07T06:17:57.659Z,16.90
2017-08-07T06:20:32.632Z,17.00
2017-08-07T06:23:07.555Z,17.20
2017-08-07T06:25:42.343Z,17.50
2017-08-07T06:28:17.385Z,17.80
2017-08-07T06:30:52.198Z,17.90
2017-08-07T06:33:27.178Z,18.00
2017-08-07T06:36:02.147Z,18.30
2017-08-07T06:38:37.086Z,18.60
2017-08-07T06:41:11.913Z,18.80
2017-08-07T06:43:46.844Z,19.10
2017-08-07T06:46:21.855Z,19.10
2017-08-07T06:49:00.033Z,19.40
2017-08-07T06:51:34.968Z,19.10
2017-08-07T06:54:09.845Z,19.50
2017-08-07T06:56:44.653Z,19.80
2017-08-07T06:59:19.660Z,19.80
2017-08-07T07:01:54.597Z,20.30
2017-08-07T07:04:29.404Z,20.50
2017-08-07T07:07:04.333Z,20.70
2017-08-07T07:09:39.257Z,20.80
2017-08-07T07:12:14.095Z,21.10
2017-08-07T07:14:48.991Z,21.20
2017-08-07T07:17:23.796Z,21.60
2017-08-07T07:19:58.711Z,22.00
2017-08-07T07:22:33.556Z,22.00
2017-08-07T07:25:08.484Z,22.10
2017-08-07T07:27:43.468Z,22.40
2017-08-07T07:30:18.263Z,22.40
2017-08-07T07:32:53.100Z,22.70
2017-08-07T07:35:27.971Z,22.90
2017-08-07T07:38:02.833Z,22.90
2017-08-07T07:40:43.321Z,22.90
2017-08-07T07:43:19.044Z,23.20
2017-08-07T07:45:53.862Z,23.00
2017-08-07T07:48:28.861Z,23.20
2017-08-07T07:51:03.656Z,23.40
2017-08-07T07:53:38.604Z,22.80
2017-08-07T07:56:13.539Z,22.90
2017-08-07T07:58:48.316Z,23.40
2017-08-07T08:01:23.314Z,23.30
2017-08-07T08:03:58.917Z,23.10
2017-08-07T08:06:33.784Z,23.30
2017-08-07T08:09:09.614Z,23.60
2017-08-07T08:11:44.431Z,23.60
2017-08-07T08:14:19.388Z,24.00
2017-08-07T08:16:54.271Z,23.70
2017-08-07T08:19:29.235Z,23.90
2017-08-07T08:22:04.216Z,24.00
2017-08-07T08:24:39.184Z,24.10
2017-08-07T08:27:14.178Z,24.20
2017-08-07T08:29:49.176Z,24.30
2017-08-07T08:32:24.148Z,24.20
2017-08-07T08:34:59.136Z,24.10
2017-08-07T08:37:34.101Z,24.20
2017-08-07T08:40:08.996Z,23.80
2017-08-07T08:42:43.783Z,24.00
2017-08-07T08:45:18.623Z,23.80
2017-08-07T08:47:53.420Z,23.90
2017-08-07T08:50:29.203Z,24.30
2017-08-07T08:53:09.560Z,24.40
2017-08-07T08:58:32.056Z,24.30
2017-08-07T09:01:07.002Z,24.30
2017-08-07T09:03:41.869Z,24.60
2017-08-07T09:06:17.144Z,24.70
2017-08-07T09:08:52.160Z,24.90
2017-08-07T09:11:26.956Z,24.80
2017-08-07T09:14:02.012Z,24.90
2017-08-07T09:16:36.899Z,25.00
2017-08-07T09:19:11.893Z,25.40
2017-08-07T09:21:46.906Z,25.40
2017-08-07T09:24:21.826Z,25.80
2017-08-07T09:26:57.396Z,26.10
2017-08-07T09:29:32.421Z,25.80
2017-08-07T09:32:07.223Z,25.00
2017-08-07T09:34:42.053Z,24.70
2017-08-07T09:37:17.637Z,24.50
2017-08-07T09:39:52.510Z,24.80
2017-08-07T09:42:27.480Z,25.30
2017-08-07T09:45:02.421Z,26.00
2017-08-07T09:47:37.385Z,26.20
2017-08-07T09:50:12.400Z,26.80
2017-08-07T09:52:47.948Z,27.40
2017-08-07T09:55:22.914Z,26.50
2017-08-07T09:57:57.805Z,27.00
2017-08-07T10:00:32.672Z,26.80
2017-08-07T10:03:07.968Z,26.30
2017-08-07T10:05:42.893Z,26.80
2017-08-07T10:08:17.815Z,26.70
2017-08-07T10:10:52.832Z,26.50
2017-08-07T10:13:28.403Z,27.00
2017-08-07T10:16:14.182Z,27.20
2017-08-07T10:18:49.027Z,26.70
2017-08-07T10:21:23.998Z,27.80
2017-08-07T10:23:58.895Z,28.50
2017-08-07T10:26:34.540Z,27.80
2017-08-07T10:29:09.459Z,28.20
2017-08-07T10:31:44.513Z,28.30
2017-08-07T10:34:19.463Z,27.00
2017-08-07T10:37:01.152Z,28.40
2017-08-07T10:39:36.152Z,28.80
2017-08-07T10:42:11.165Z,28.40
2017-08-07T10:44:46.024Z,27.90
2017-08-07T10:47:20.876Z,28.90
2017-08-07T10:49:55.860Z,29.80
2017-08-07T10:52:30.776Z,29.80
2017-08-07T10:55:05.743Z,30.40
2017-08-07T10:57:40.668Z,31.50
2017-08-07T11:00:15.501Z,30.00
2017-08-07T11:02:50.352Z,29.00
2017-08-07T11:05:25.312Z,29.60
2017-08-07T11:08:00.240Z,29.20
2017-08-07T11:10:35.374Z,30.50
2017-08-07T11:13:11.157Z,30.10
2017-08-07T11:15:46.176Z,30.50
2017-08-07T11:18:21.989Z,31.20
2017-08-07T11:20:56.936Z,31.70
2017-08-07T11:23:32.697Z,32.20
2017-08-07T11:26:07.679Z,32.80
2017-08-07T11:31:52.665Z,32.40
2017-08-07T11:34:27.659Z,31.90
2017-08-07T11:37:02.677Z,30.90
2017-08-07T11:39:37.580Z,31.90
2017-08-07T11:42:13.200Z,32.60
2017-08-07T11:44:48.240Z,32.90
2017-08-07T11:47:23.211Z,32.70
2017-08-07T11:49:58.407Z,33.80
2017-08-07T11:52:33.342Z,34.30
2017-08-07T11:55:08.256Z,34.40
2017-08-07T11:57:43.976Z,34.50
2017-08-07T12:00:18.943Z,34.60
2017-08-07T12:02:53.853Z,34.10
2017-08-07T12:05:28.746Z,33.70
2017-08-07T12:08:20.645Z,34.10
2017-08-07T12:10:55.880Z,33.60
2017-08-07T12:13:31.556Z,33.60
2017-08-07T12:16:07.516Z,33.80
2017-08-07T12:18:42.848Z,34.50
2017-08-07T12:21:17.804Z,34.60
2017-08-07T12:23:52.734Z,35.20
2017-08-07T12:26:27.524Z,34.70
2017-08-07T12:29:02.348Z,34.40
2017-08-07T12:31:37.281Z,35.30
2017-08-07T12:34:12.121Z,35.30
2017-08-07T12:36:47.042Z,36.00
2017-08-07T12:39:22.048Z,35.90
2017-08-07T12:41:57.734Z,36.60
2017-08-07T12:44:32.545Z,36.80
2017-08-07T12:47:08.243Z,37.20
2017-08-07T12:49:43.191Z,37.10
2017-08-07T12:52:17.994Z,37.60
2017-08-07T12:54:52.885Z,38.50
2017-08-07T12:57:27.712Z,39.10
2017-08-07T13:00:03.388Z,39.20
2017-08-07T13:02:38.344Z,39.70
2017-08-07T13:05:13.306Z,38.60
2017-08-07T13:07:56.599Z,37.50
2017-08-07T13:10:31.439Z,38.30
2017-08-07T13:13:06.383Z,38.60
2017-08-07T13:15:41.346Z,38.60
2017-08-07T13:18:16.259Z,36.60
2017-08-07T13:20:51.042Z,36.20
2017-08-07T13:23:25.985Z,36.20
2017-08-07T13:26:00.928Z,37.90
2017-08-07T13:28:35.755Z,38.80
2017-08-07T13:31:10.744Z,38.50
2017-08-07T13:33:52.683Z,38.30
2017-08-07T13:36:27.592Z,36.90
2017-08-07T13:39:02.475Z,35.20
2017-08-07T13:41:37.344Z,34.30
2017-08-07T13:44:12.339Z,35.70
2017-08-07T13:46:47.297Z,37.20
2017-08-07T13:49:22.152Z,38.10
2017-08-07T13:51:57.746Z,38.50
2017-08-07T13:54:34.568Z,39.20
2017-08-07T13:57:09.593Z,38.00
2017-08-07T13:59:44.690Z,37.50
2017-08-07T14:02:19.693Z,38.90
2017-08-07T14:04:54.653Z,39.30
2017-08-07T14:07:30.282Z,40.10
2017-08-07T14:10:05.252Z,39.80
2017-08-07T14:12:40.956Z,39.70
2017-08-07T14:15:15.769Z,37.20
2017-08-07T14:17:51.429Z,36.40
2017-08-07T14:20:49.603Z,36.60
2017-08-07T14:23:24.391Z,36.40
2017-08-07T14:26:00.189Z,35.00
2017-08-07T14:28:35.157Z,35.40
2017-08-07T14:31:10.830Z,36.20
2017-08-07T14:33:45.836Z,35.20
2017-08-07T14:36:29.168Z,34.60
2017-08-07T14:39:04.073Z,34.80
2017-08-07T14:41:38.936Z,36.30
2017-08-07T14:44:13.804Z,37.10
2017-08-07T14:46:48.655Z,37.40
2017-08-07T14:49:23.683Z,38.30
2017-08-07T14:51:58.501Z,38.80
2017-08-07T14:54:33.359Z,37.00
2017-08-07T14:57:08.173Z,35.90
2017-08-07T14:59:43.127Z,36.20
2017-08-07T15:02:18.060Z,36.30
2017-08-07T15:05:07.238Z,36.30
2017-08-07T15:07:42.132Z,35.60
2017-08-07T15:10:17.095Z,35.70
2017-08-07T15:12:52.032Z,35.20
2017-08-07T15:15:27.029Z,34.50
2017-08-07T15:18:01.940Z,33.70
2017-08-07T15:20:43.886Z,33.90
2017-08-07T15:23:18.978Z,33.30
2017-08-07T15:25:54.545Z,32.50
2017-08-07T15:28:29.434Z,32.20
2017-08-07T15:31:05.071Z,31.80
2017-08-07T15:33:39.921Z,32.20
2017-08-07T15:36:14.713Z,33.20
2017-08-07T15:38:49.765Z,33.80
2017-08-07T15:41:24.761Z,33.80
2017-08-07T15:43:59.795Z,33.40
2017-08-07T15:46:34.618Z,32.90
2017-08-07T15:49:09.611Z,33.20
2017-08-07T15:51:44.533Z,33.40
2017-08-07T15:54:19.383Z,33.40
2017-08-07T15:56:54.328Z,33.50
2017-08-07T15:59:29.180Z,33.60
2017-08-07T16:02:04.132Z,33.30
2017-08-07T16:04:38.941Z,32.70
2017-08-07T16:07:14.835Z,32.60
2017-08-07T16:09:49.705Z,33.00
2017-08-07T16:12:25.345Z,32.60
2017-08-07T16:15:00.239Z,32.80
2017-08-07T16:17:35.100Z,32.60
2017-08-07T16:20:11.155Z,32.20
2017-08-07T16:22:46.127Z,32.40
2017-08-07T16:25:21.276Z,32.20
2017-08-07T16:27:56.291Z,32.20
2017-08-07T16:30:33.014Z,32.40
2017-08-07T16:33:07.941Z,32.70
2017-08-07T16:38:52.474Z,33.60
2017-08-07T16:41:31.744Z,33.40
2017-08-07T16:44:06.753Z,33.00
2017-08-07T16:46:41.716Z,32.90
2017-08-07T16:49:16.613Z,33.00
2017-08-07T16:51:51.611Z,32.40
2017-08-07T16:54:26.597Z,32.90
2017-08-07T16:57:01.512Z,32.80
2017-08-07T16:59:39.740Z,32.80
2017-08-07T17:02:14.731Z,31.90
2017-08-07T17:04:49.690Z,31.50
2017-08-07T17:07:24.527Z,31.60
2017-08-07T17:09:59.564Z,31.60
2017-08-07T17:12:34.452Z,30.90
2017-08-07T17:15:10.244Z,30.90
2017-08-07T17:17:45.228Z,29.00
2017-08-07T17:20:20.256Z,28.30
2017-08-07T17:22:55.108Z,27.50
2017-08-07T17:25:29.888Z,27.10
2017-08-07T17:28:04.698Z,26.80
2017-08-07T17:30:40.228Z,26.30
2017-08-07T17:33:28.008Z,26.10
2017-08-07T17:36:02.784Z,25.80
2017-08-07T17:38:37.811Z,25.90
2017-08-07T17:41:12.627Z,26.10
2017-08-07T17:43:47.579Z,25.60
2017-08-07T17:46:23.348Z,25.70
2017-08-07T17:49:03.536Z,25.70
2017-08-07T17:51:39.235Z,25.70
2017-08-07T17:59:22.157Z,24.80
2017-08-07T18:02:00.437Z,24.90
2017-08-07T18:04:47.859Z,24.90
2017-08-07T18:07:54.389Z,24.80
2017-08-07T18:10:31.826Z,24.70
2017-08-07T18:13:33.621Z,24.30
2017-08-07T18:19:15.549Z,24.40
2017-08-07T18:21:51.112Z,24.10
2017-08-07T18:24:26.033Z,24.00
2017-08-07T18:27:00.812Z,23.70
2017-08-07T18:29:35.637Z,23.50
2017-08-07T18:32:10.532Z,23.10
2017-08-07T18:34:45.298Z,22.90
2017-08-07T18:37:21.282Z,22.70
2017-08-07T18:39:58.136Z,22.20
2017-08-07T18:42:33.250Z,22.20
2017-08-07T18:45:08.233Z,21.70
2017-08-07T18:47:43.991Z,21.60
2017-08-07T18:50:18.953Z,21.20
2017-08-07T18:53:00.650Z,21.00
2017-08-07T18:55:35.562Z,20.90
2017-08-07T18:58:10.456Z,20.60
2017-08-07T19:00:46.184Z,20.70
2017-08-07T19:03:21.084Z,20.70
2017-08-07T19:05:55.914Z,20.60
2017-08-07T19:08:30.723Z,20.20
2017-08-07T19:11:05.673Z,20.40
2017-08-07T19:13:43.385Z,20.10
2017-08-07T19:16:19.631Z,20.20
2017-08-07T19:18:54.533Z,20.10
2017-08-07T19:21:29.344Z,20.00
2017-08-07T19:24:04.111Z,20.10
2017-08-07T19:26:39.757Z,19.90
2017-08-07T19:29:14.515Z,19.80
2017-08-07T19:31:49.504Z,19.80
2017-08-07T19:34:24.257Z,19.60
2017-08-07T19:37:00.136Z,19.50
2017-08-07T19:39:35.037Z,19.60
2017-08-07T19:42:09.976Z,19.60
2017-08-07T19:44:44.750Z,19.50
2017-08-07T19:47:19.681Z,19.40
2017-08-07T19:49:54.424Z,19.50
2017-08-07T19:52:29.335Z,19.40
2017-08-07T19:55:04.118Z,19.40
2017-08-07T19:57:39.033Z,19.30
2017-08-07T20:00:13.812Z,19.10
2017-08-07T20:02:55.308Z,19.20
2017-08-07T20:05:30.249Z,19.10
2017-08-07T20:08:05.221Z,18.90
2017-08-07T20:10:40.887Z,19.00
2017-08-07T20:13:15.884Z,19.00
2017-08-07T20:16:08.496Z,18.70
2017-08-07T20:18:43.421Z,18.90
2017-08-07T20:21:18.236Z,18.90
2017-08-07T20:23:53.176Z,18.80
2017-08-07T20:26:32.187Z,18.60
2017-08-07T20:29:07.084Z,18.40
2017-08-07T20:31:41.855Z,18.30
2017-08-07T20:34:17.828Z,18.40
2017-08-07T20:36:55.631Z,18.40
2017-08-07T20:39:30.786Z,18.40
2017-08-07T20:42:05.676Z,18.50
2017-08-07T20:44:40.615Z,18.30
2017-08-07T20:47:15.702Z,18.30
2017-08-07T20:50:01.345Z,18.30
2017-08-07T20:52:36.507Z,18.40
2017-08-07T20:55:28.484Z,18.10
2017-08-07T20:58:03.818Z,18.20
2017-08-07T21:00:38.767Z,18.10
2017-08-07T21:03:13.668Z,18.00
2017-08-07T21:05:48.740Z,17.90
2017-08-07T21:08:23.786Z,17.80
2017-08-07T21:10:58.918Z,17.90
2017-08-07T21:13:33.852Z,17.80
2017-08-07T21:16:08.894Z,17.90
2017-08-07T21:18:44.323Z,17.80
2017-08-07T21:21:24.829Z,17.60
2017-08-07T21:23:59.889Z,17.60
2017-08-07T21:26:34.685Z,17.60
2017-08-07T21:29:09.620Z,17.60
2017-08-07T21:31:44.568Z,17.30
2017-08-07T21:34:19.723Z,17.40
2017-08-07T21:36:54.713Z,17.20
2017-08-07T21:39:29.662Z,17.00
2017-08-07T21:42:04.500Z,17.00
2017-08-07T21:44:39.326Z,17.00
2017-08-07T21:47:14.259Z,17.00
2017-08-07T21:49:49.192Z,17.10
2017-08-07T21:52:24.195Z,16.90
2017-08-07T21:54:59.107Z,17.00
2017-08-07T21:57:34.155Z,17.00
2017-08-07T22:00:09.045Z,16.90
2017-08-07T22:02:44.013Z,17.00
2017-08-07T22:05:19.027Z,16.60
2017-08-07T22:07:54.887Z,16.60
2017-08-07T22:10:34.349Z,16.30
2017-08-07T22:13:11.440Z,16.10
2017-08-07T22:15:58.107Z,16.00
2017-08-07T22:18:48.007Z,16.20
2017-08-07T22:21:27.913Z,16.30
2017-08-07T22:26:54.261Z,16.30
2017-08-07T22:29:58.232Z,16.30
2017-08-07T22:32:47.167Z,16.50
2017-08-07T22:35:31.414Z,16.60
2017-08-07T22:38:15.126Z,16.50
2017-08-07T22:40:52.453Z,16.30
2017-08-07T22:43:32.873Z,16.30
2017-08-07T22:46:09.405Z,16.50
2017-08-07T22:48:52.415Z,16.50
2017-08-07T22:51:28.324Z,16.30
2017-08-07T22:54:03.734Z,16.40
2017-08-07T22:56:42.367Z,16.30
2017-08-07T22:59:18.258Z,16.40
2017-08-07T23:01:54.394Z,16.50
2017-08-07T23:04:32.455Z,16.60
2017-08-07T23:07:10.085Z,16.60
2017-08-07T23:09:48.866Z,16.60
2017-08-07T23:12:31.151Z,16.50
2017-08-07T23:20:46.164Z,16.40
2017-08-07T23:23:29.158Z,16.40
2017-08-07T23:26:12.139Z,16.40
2017-08-07T23:28:58.476Z,16.40
2017-08-07T23:31:46.066Z,16.50
2017-08-07T23:34:26.463Z,16.40
2017-08-07T23:37:08.044Z,16.40
2017-08-07T23:39:51.138Z,16.30
2017-08-07T23:42:33.373Z,16.30
2017-08-07T23:45:11.066Z,16.20
2017-08-07T23:47:47.224Z,16.30
2017-08-07T23:50:26.465Z,16.40
2017-08-07T23:53:03.185Z,16.40
2017-08-07T23:55:46.355Z,16.30
2017-08-07T23:58:33.474Z,16.40
